Time;durP1;ratioP1;P1;durP2;ratioP2;P2;SDS_P1;SDS_P2;PMS_P1;PMS_P2;Temp;Humidity;BMP_temperature;BMP_pressure;BME280_temperature;BME280_humidity;BME280_pressure;Samples;Min_cycle;Max_cycle;Signal;HPM_P1;HPM_P2
2023/09/10 00:01:28;;;;;;;17.52;11.82;;;18.20;1.00;;;;;;6248351;23;20028;-91
2023/09/10 00:04:16;;;;;;;13.77;10.95;;;18.10;99.90;;;;;;6228548;23;20349;-92
2023/09/10 00:07:03;;;;;;;20.88;11.85;;;18.10;99.90;;;;;;6229470;23;20046;-92
2023/09/10 00:09:53;;;;;;;18.23;11.55;;;18.00;99.90;;;;;;6252303;23;20071;-93
2023/09/10 00:12:45;;;;;;;18.95;11.60;;;17.90;1.00;;;;;;6251571;23;20024;-94
2023/09/10 00:15:32;;;;;;;20.08;14.55;;;18.00;99.90;;;;;;6228139;23;20026;-94
2023/09/10 00:18:21;;;;;;;17.60;12.98;;;18.00;99.90;;;;;;6253116;22;20039;-91
2023/09/10 00:21:08;;;;;;;20.38;13.43;;;18.00;1.00;;;;;;6232200;23;20343;-94
2023/09/10 00:23:56;;;;;;;18.52;12.82;;;18.00;1.00;;;;;;6250078;23;20024;-92
2023/09/10 00:26:44;;;;;;;21.08;12.40;;;18.00;1.00;;;;;;6251871;23;20592;-95
2023/09/10 00:29:31;;;;;;;17.80;13.98;;;17.90;1.00;;;;;;6228141;23;20385;-93
2023/09/10 00:32:18;;;;;;;19.23;14.15;;;18.00;1.00;;;;;;6231204;23;20032;-93
2023/09/10 00:35:08;;;;;;;18.88;13.55;;;18.00;1.00;;;;;;6251559;22;20411;-94
2023/09/10 00:37:57;;;;;;;22.67;14.05;;;18.00;1.00;;;;;;6249469;23;20028;-91
2023/09/10 00:40:48;;;;;;;22.50;14.57;;;17.90;48.90;;;;;;6250458;23;20106;-93
2023/09/10 00:43:35;;;;;;;21.13;13.88;;;17.80;55.40;;;;;;6249321;23;20031;-92
2023/09/10 00:46:23;;;;;;;18.50;14.30;;;17.80;59.70;;;;;;6248173;23;20090;-94
2023/09/10 00:49:14;;;;;;;22.80;13.32;;;17.80;95.40;;;;;;6250753;23;20024;-93
2023/09/10 00:52:05;;;;;;;19.98;13.52;;;17.70;99.90;;;;;;6252331;22;20288;-93
2023/09/10 00:54:53;;;;;;;27.92;14.32;;;17.70;99.90;;;;;;6230576;23;20414;-93
2023/09/10 00:57:40;;;;;;;19.15;14.60;;;17.60;99.90;;;;;;6229269;23;20035;-93
2023/09/10 01:00:29;;;;;;;22.33;14.27;;;17.50;99.90;;;;;;6250063;23;20467;-91
2023/09/10 01:03:17;;;;;;;20.58;14.60;;;17.50;99.90;;;;;;6250796;23;20067;-92
2023/09/10 01:06:05;;;;;;;19.58;14.38;;;17.50;99.90;;;;;;6228191;23;20126;-92
2023/09/10 01:08:52;;;;;;;21.77;13.77;;;17.40;99.90;;;;;;6253513;22;20107;-91
2023/09/10 01:11:48;;;;;;;17.52;13.60;;;17.40;99.90;;;;;;6250518;23;20036;-91
2023/09/10 01:14:53;;;;;;;23.10;15.82;;;17.30;99.90;;;;;;6252205;23;20024;-90
2023/09/10 01:18:14;;;;;;;20.33;15.38;;;17.30;99.90;;;;;;6250893;23;20039;-90
2023/09/10 01:21:04;;;;;;;23.30;14.00;;;17.30;99.90;;;;;;6259182;23;20064;-90
2023/09/10 01:24:14;;;;;;;24.02;14.82;;;17.30;99.90;;;;;;6262008;23;20025;-93
2023/09/10 01:27:04;;;;;;;20.55;14.00;;;17.30;99.90;;;;;;6236973;22;20020;-94
2023/09/10 01:29:51;;;;;;;20.98;15.52;;;17.30;99.90;;;;;;6253360;23;20024;-93
2023/09/10 01:32:51;;;;;;;22.55;14.75;;;17.30;99.90;;;;;;6230709;23;20028;-94
2023/09/10 01:35:52;;;;;;;21.80;13.27;;;17.30;99.90;;;;;;6252129;23;20028;-94
2023/09/10 01:38:55;;;;;;;18.10;14.32;;;17.30;99.90;;;;;;6228870;23;20024;-93
2023/09/10 01:41:45;;;;;;;17.65;13.60;;;17.20;99.90;;;;;;6230262;23;20024;-93
2023/09/10 01:44:37;;;;;;;21.20;13.85;;;17.20;99.90;;;;;;6249829;23;20020;-93
2023/09/10 01:47:30;;;;;;;22.55;15.07;;;17.30;99.90;;;;;;6228779;23;20031;-93
2023/09/10 01:50:17;;;;;;;28.63;13.73;;;17.20;99.90;;;;;;6230287;23;20035;-94
2023/09/10 01:53:05;;;;;;;21.77;13.18;;;17.20;99.90;;;;;;6261163;23;20028;-92
2023/09/10 01:55:52;;;;;;;19.02;13.38;;;17.20;99.90;;;;;;6246936;23;20030;-91
2023/09/10 01:58:39;;;;;;;23.58;13.40;;;17.20;99.90;;;;;;6253208;23;20331;-92
2023/09/10 02:01:27;;;;;;;22.58;12.35;;;17.10;99.90;;;;;;6258179;23;20024;-93
2023/09/10 02:04:15;;;;;;;17.88;13.15;;;17.10;99.90;;;;;;6267779;22;20048;-85
2023/09/10 02:07:02;;;;;;;24.02;14.05;;;17.00;99.90;;;;;;6274666;22;20052;-88
2023/09/10 02:09:50;;;;;;;16.15;12.23;;;17.00;99.90;;;;;;6268683;22;20043;-91
2023/09/10 02:12:37;;;;;;;27.85;14.40;;;17.10;99.90;;;;;;6254060;23;20028;-93
2023/09/10 02:15:26;;;;;;;18.88;13.27;;;17.00;99.90;;;;;;6252268;23;20094;-93
2023/09/10 02:18:13;;;;;;;19.20;12.93;;;17.00;99.90;;;;;;6250205;23;20024;-93
2023/09/10 02:21:11;;;;;;;20.02;14.55;;;17.00;99.90;;;;;;6248722;23;20039;-92
2023/09/10 02:23:59;;;;;;;16.60;13.50;;;17.10;99.90;;;;;;6248607;23;20056;-92
2023/09/10 02:26:46;;;;;;;22.25;14.65;;;17.00;99.90;;;;;;6251616;23;20079;-93
2023/09/10 02:29:33;;;;;;;19.38;14.40;;;17.00;99.90;;;;;;6250038;23;20042;-93
2023/09/10 02:32:21;;;;;;;18.05;13.57;;;17.10;99.90;;;;;;6252231;22;20334;-92
2023/09/10 02:35:09;;;;;;;20.83;14.15;;;17.10;99.90;;;;;;6251040;23;20087;-92
2023/09/10 02:37:56;;;;;;;19.02;13.65;;;17.10;99.90;;;;;;6231239;23;20032;-94
2023/09/10 02:40:43;;;;;;;19.73;14.60;;;17.10;99.90;;;;;;6250466;23;20020;-93
2023/09/10 02:43:31;;;;;;;19.23;14.68;;;17.00;99.90;;;;;;6251526;23;20035;-92
2023/09/10 02:46:18;;;;;;;18.70;13.38;;;17.00;99.90;;;;;;6251162;23;20312;-92
2023/09/10 02:49:08;;;;;;;21.02;15.02;;;17.10;99.90;;;;;;6249858;23;20027;-93
2023/09/10 02:51:57;;;;;;;18.02;14.25;;;17.00;99.90;;;;;;6249299;23;20055;-92
2023/09/10 02:54:45;;;;;;;22.63;15.30;;;16.90;99.90;;;;;;6251313;22;20023;-92
2023/09/10 02:57:32;;;;;;;25.30;14.82;;;16.90;99.90;;;;;;6247839;23;20372;-92
2023/09/10 03:00:25;;;;;;;20.42;13.48;;;17.00;99.90;;;;;;6248637;23;20090;-92
2023/09/10 03:03:12;;;;;;;20.50;14.45;;;17.00;99.90;;;;;;6249855;23;20020;-93
2023/09/10 03:06:00;;;;;;;18.67;14.35;;;17.00;99.90;;;;;;6246445;23;20024;-93
2023/09/10 03:08:47;;;;;;;21.10;14.20;;;16.90;99.90;;;;;;6249329;23;20024;-93
2023/09/10 03:11:38;;;;;;;18.73;14.02;;;16.80;99.90;;;;;;6250086;23;20024;-94
2023/09/10 03:14:28;;;;;;;22.30;14.60;;;16.70;99.90;;;;;;6228763;23;20442;-93
2023/09/10 03:17:17;;;;;;;17.77;14.45;;;16.70;99.90;;;;;;6228568;23;20038;-94
2023/09/10 03:20:05;;;;;;;27.13;14.82;;;16.60;99.90;;;;;;6229775;23;20020;-93
2023/09/10 03:22:58;;;;;;;19.13;14.85;;;16.50;99.90;;;;;;6249923;23;20355;-93
2023/09/10 03:25:46;;;;;;;;;;;16.50;99.90;;;;;;6250285;23;20020;-91
2023/09/10 03:28:33;;;;;;;23.52;15.20;;;16.40;99.90;;;;;;6249941;23;19915;-92
2023/09/10 03:31:20;;;;;;;19.92;14.65;;;16.40;99.90;;;;;;6249664;23;20020;-93
2023/09/10 03:34:07;;;;;;;20.08;15.02;;;16.40;99.90;;;;;;6248495;23;20020;-92
2023/09/10 03:36:56;;;;;;;20.15;14.68;;;16.50;99.90;;;;;;6249077;23;20024;-91
2023/09/10 03:39:45;;;;;;;17.10;13.30;;;16.60;99.90;;;;;;6227406;23;20431;-93
2023/09/10 03:42:37;;;;;;;15.75;13.95;;;16.50;99.90;;;;;;6249901;23;20027;-93
2023/09/10 03:45:26;;;;;;;19.25;14.18;;;16.50;99.90;;;;;;6230596;23;20415;-93
2023/09/10 03:48:14;;;;;;;19.17;14.35;;;16.40;99.90;;;;;;6252041;23;20047;-93
2023/09/10 03:51:02;;;;;;;22.85;15.80;;;16.40;99.90;;;;;;6260449;23;20047;-91
2023/09/10 03:53:49;;;;;;;23.02;15.68;;;16.30;99.90;;;;;;6255525;23;20063;-92
2023/09/10 03:56:39;;;;;;;21.05;15.10;;;16.20;99.90;;;;;;6260493;23;20027;-91
2023/09/10 03:59:26;;;;;;;26.20;15.88;;;16.20;99.90;;;;;;6255183;23;20402;-92
2023/09/10 04:02:17;;;;;;;20.00;14.88;;;16.20;99.90;;;;;;6256781;23;20024;-92
2023/09/10 04:05:11;;;;;;;18.98;14.68;;;16.30;99.90;;;;;;6251767;23;20123;-93
2023/09/10 04:08:01;;;;;;;20.83;14.90;;;16.20;99.90;;;;;;6250748;23;20109;-92
2023/09/10 04:10:48;;;;;;;20.67;14.05;;;16.30;99.90;;;;;;6248993;23;20334;-93
2023/09/10 04:13:37;;;;;;;21.65;15.02;;;16.20;99.90;;;;;;6261979;23;20055;-88
2023/09/10 04:16:26;;;;;;;22.20;14.73;;;16.20;99.90;;;;;;6240789;23;20035;-93
2023/09/10 04:19:13;;;;;;;20.00;16.02;;;16.30;99.90;;;;;;6248904;23;20052;-92
2023/09/10 04:22:02;;;;;;;19.13;14.57;;;16.20;99.90;;;;;;6245859;23;20016;-92
2023/09/10 04:24:50;;;;;;;23.15;14.85;;;16.20;99.90;;;;;;6227310;23;20020;-92
2023/09/10 04:27:38;;;;;;;21.73;15.40;;;16.30;99.90;;;;;;6250889;22;20415;-93
2023/09/10 04:30:25;;;;;;;17.75;13.77;;;16.30;99.90;;;;;;6247785;23;20028;-92
2023/09/10 04:33:18;;;;;;;17.75;13.43;;;16.30;99.90;;;;;;6248465;23;20038;-93
2023/09/10 04:36:05;;;;;;;20.15;14.40;;;16.40;99.90;;;;;;6252758;22;20028;-92
2023/09/10 04:38:55;;;;;;;22.50;14.48;;;16.40;99.90;;;;;;6260928;23;20099;-91
2023/09/10 04:41:43;;;;;;;22.25;14.10;;;16.40;99.90;;;;;;6273620;22;20019;-87
2023/09/10 04:44:30;;;;;;;19.17;14.27;;;16.40;99.90;;;;;;6269057;22;20035;-92
2023/09/10 04:47:20;;;;;;;17.33;13.70;;;16.30;99.90;;;;;;6263877;23;20028;-91
2023/09/10 04:50:12;;;;;;;19.67;13.80;;;16.30;99.90;;;;;;6252131;23;20031;-92
2023/09/10 04:53:01;;;;;;;23.75;13.98;;;16.40;99.90;;;;;;6251675;23;20032;-94
2023/09/10 04:55:53;;;;;;;22.70;14.25;;;16.40;99.90;;;;;;6252318;23;20028;-93
2023/09/10 04:58:43;;;;;;;20.70;15.20;;;16.50;99.90;;;;;;6251696;23;20024;-93
2023/09/10 05:01:31;;;;;;;20.13;13.80;;;16.60;99.90;;;;;;6229959;23;20035;-94
2023/09/10 05:04:20;;;;;;;18.48;13.65;;;16.60;99.90;;;;;;6252132;23;20024;-92
2023/09/10 05:07:09;;;;;;;17.90;14.38;;;16.70;99.90;;;;;;6251740;23;20039;-90
2023/09/10 05:09:56;;;;;;;19.33;14.50;;;16.70;99.90;;;;;;6254788;23;20051;-92
2023/09/10 05:12:44;;;;;;;20.98;14.38;;;16.80;99.90;;;;;;6252534;23;20028;-92
2023/09/10 05:15:31;;;;;;;22.77;13.95;;;16.80;99.90;;;;;;6252584;23;20055;-93
2023/09/10 05:18:19;;;;;;;22.27;13.82;;;16.90;99.90;;;;;;6236861;23;20054;-93
2023/09/10 05:21:08;;;;;;;18.67;14.27;;;16.90;99.90;;;;;;6264191;23;20040;-92
2023/09/10 05:23:56;;;;;;;19.52;13.77;;;17.00;99.90;;;;;;6265256;23;20020;-92
2023/09/10 05:26:43;;;;;;;19.02;12.60;;;17.00;99.90;;;;;;6243873;23;20067;-87
2023/09/10 05:29:30;;;;;;;20.65;13.63;;;17.00;99.90;;;;;;6272438;22;20069;-86
2023/09/10 05:32:17;;;;;;;25.73;13.65;;;17.00;99.90;;;;;;6252012;22;20060;-92
2023/09/10 05:35:05;;;;;;;20.05;13.85;;;17.00;99.90;;;;;;6265391;23;20084;-91
2023/09/10 05:37:52;;;;;;;20.92;13.07;;;17.00;99.90;;;;;;6266726;23;20024;-92
2023/09/10 05:40:40;;;;;;;18.42;13.40;;;17.10;99.90;;;;;;6249585;23;20030;-93
2023/09/10 05:43:31;;;;;;;18.95;14.02;;;17.10;99.90;;;;;;6258542;23;20024;-92
2023/09/10 05:46:18;;;;;;;20.30;13.40;;;17.10;99.90;;;;;;6233847;23;20030;-93
2023/09/10 05:49:06;;;;;;;19.38;13.68;;;17.10;99.90;;;;;;6255842;23;20031;-94
2023/09/10 05:51:54;;;;;;;20.10;12.55;;;17.10;99.90;;;;;;6230618;23;20023;-92
2023/09/10 05:54:41;;;;;;;23.08;17.35;;;17.20;99.90;;;;;;6252465;23;20020;-91
2023/09/10 05:57:31;;;;;;;20.33;14.90;;;17.20;99.90;;;;;;6251628;23;20035;-93
2023/09/10 06:00:22;;;;;;;22.70;13.85;;;17.30;99.90;;;;;;6250851;23;20099;-94
2023/09/10 06:03:10;;;;;;;20.35;13.68;;;17.40;99.90;;;;;;6252656;23;20020;-94
2023/09/10 06:05:58;;;;;;;15.18;11.95;;;17.50;99.90;;;;;;6252589;23;20431;-94
2023/09/10 06:08:47;;;;;;;17.00;12.38;;;17.60;95.00;;;;;;6260027;23;20035;-91
2023/09/10 06:11:35;;;;;;;22.42;13.75;;;17.60;10.80;;;;;;6237965;23;20035;-93
2023/09/10 06:14:22;;;;;;;15.75;12.75;;;17.60;1.00;;;;;;6260601;23;20104;-91
2023/09/10 06:17:12;;;;;;;18.40;12.48;;;17.70;1.00;;;;;;6235112;23;20023;-93
2023/09/10 06:20:07;;;;;;;18.27;11.77;;;17.80;1.00;;;;;;6232054;23;20020;-95
2023/09/10 06:22:56;;;;;;;14.75;12.00;;;17.90;1.00;;;;;;6234850;23;20612;-91
2023/09/10 06:25:47;;;;;;;17.75;12.02;;;18.00;1.00;;;;;;6253937;23;20031;-94
2023/09/10 06:28:35;;;;;;;17.80;10.90;;;18.30;99.90;;;;;;6253059;23;20491;-94
2023/09/10 06:31:22;;;;;;;14.68;10.82;;;18.40;98.70;;;;;;6249350;23;20035;-94
2023/09/10 06:34:13;;;;;;;16.30;10.88;;;18.50;99.90;;;;;;6251774;23;20028;-95
2023/09/10 06:37:02;;;;;;;20.98;10.80;;;18.70;1.00;;;;;;6264389;22;20031;-90
2023/09/10 06:39:55;;;;;;;15.30;10.60;;;18.80;9.10;;;;;;6253094;23;20020;-93
2023/09/10 06:42:43;;;;;;;13.75;9.88;;;19.00;99.90;;;;;;6261099;23;20012;-89
2023/09/10 06:45:31;;;;;;;12.27;9.27;;;19.00;99.90;;;;;;6242161;23;20446;-93
2023/09/10 06:48:19;;;;;;;13.50;9.85;;;19.20;99.90;;;;;;6250102;23;20028;-92
2023/09/10 06:51:09;;;;;;;16.83;9.60;;;19.30;99.90;;;;;;6252161;22;20335;-93
2023/09/10 06:53:59;;;;;;;13.73;9.45;;;19.50;99.90;;;;;;6229918;23;20078;-92
2023/09/10 06:56:47;;;;;;;14.55;9.68;;;19.70;1.00;;;;;;6230554;23;20024;-92
2023/09/10 06:59:35;;;;;;;14.80;10.25;;;19.90;99.90;;;;;;6229892;23;20055;-93
2023/09/10 07:02:24;;;;;;;13.50;9.82;;;20.00;99.90;;;;;;6231308;23;20093;-93
2023/09/10 07:05:18;;;;;;;18.48;9.55;;;20.20;7.60;;;;;;6232444;22;20020;-93
2023/09/10 07:08:12;;;;;;;13.88;9.00;;;20.50;99.90;;;;;;6211705;23;20024;-95
2023/09/10 07:11:06;;;;;;;12.48;8.50;;;20.60;99.90;;;;;;6229997;23;20422;-93
2023/09/10 07:13:53;;;;;;;17.15;9.18;;;20.80;99.90;;;;;;6255411;23;20078;-93
2023/09/10 07:16:46;;;;;;;13.55;8.88;;;21.10;1.00;;;;;;6233564;22;20039;-93
2023/09/10 07:19:37;;;;;;;14.50;8.80;;;21.30;99.90;;;;;;6231329;23;20019;-93
2023/09/10 07:22:28;;;;;;;12.07;7.80;;;21.60;99.90;;;;;;6258058;22;20020;-93
2023/09/10 07:25:18;;;;;;;12.77;7.60;;;21.70;1.00;;;;;;6264807;23;20086;-92
2023/09/10 07:28:06;;;;;;;10.68;7.90;;;21.80;1.00;;;;;;6272767;22;20094;-88
2023/09/10 07:30:56;;;;;;;9.65;7.40;;;21.90;99.90;;;;;;6273005;22;21009;-87
2023/09/10 07:33:44;;;;;;;12.48;7.65;;;22.00;99.90;;;;;;6243048;23;20024;-92
2023/09/10 07:37:01;;;;;;;14.90;7.18;;;22.10;99.90;;;;;;6250062;23;20028;-94
2023/09/10 07:40:52;;;;;;;9.00;7.05;;;22.20;89.20;;;;;;6250749;23;20020;-91
2023/09/10 07:43:59;;;;;;;9.57;6.53;;;22.30;1.00;;;;;;6247979;23;20040;-92
2023/09/10 07:46:47;;;;;;;9.85;6.65;;;22.60;1.00;;;;;;6249949;23;20032;-92
2023/09/10 07:49:35;;;;;;;10.45;7.05;;;22.70;99.90;;;;;;6249917;23;20028;-91
2023/09/10 07:52:22;;;;;;;15.82;6.80;;;22.80;99.90;;;;;;6249611;23;20031;-93
2023/09/10 07:55:10;;;;;;;12.48;7.22;;;23.00;99.90;;;;;;6247758;23;20016;-94
2023/09/10 07:57:58;;;;;;;9.68;7.40;;;23.20;99.90;;;;;;6226885;23;20023;-91
2023/09/10 08:00:45;;;;;;;10.77;6.82;;;23.40;99.90;;;;;;6250429;23;20020;-92
2023/09/10 08:03:36;;;;;;;9.98;7.07;;;23.50;99.90;;;;;;6249219;23;20156;-92
2023/09/10 08:06:24;;;;;;;8.48;6.65;;;23.90;99.90;;;;;;6250055;23;20413;-92
2023/09/10 08:09:11;;;;;;;12.18;6.07;;;24.30;99.90;;;;;;6248834;23;20024;-92
2023/09/10 08:11:59;;;;;;;11.93;6.57;;;24.50;51.10;;;;;;6248069;23;20039;-92
2023/09/10 08:15:00;;;;;;;10.75;6.05;;;24.80;1.00;;;;;;6250976;23;20035;-90
2023/09/10 08:17:55;;;;;;;10.52;5.65;;;25.40;1.00;;;;;;6249835;23;20111;-93
2023/09/10 08:20:43;;;;;;;13.30;6.18;;;26.20;1.00;;;;;;6250157;23;20020;-92
2023/09/10 08:23:35;;;;;;;16.25;6.05;;;26.80;1.00;;;;;;6242960;23;20020;-91
2023/09/10 08:26:23;;;;;;;10.75;5.05;;;27.40;99.90;;;;;;6262192;23;20304;-94
2023/09/10 08:29:11;;;;;;;7.60;4.80;;;28.10;99.90;;;;;;6250132;23;20103;-94
2023/09/10 08:32:01;;;;;;;7.28;4.20;;;28.90;99.90;;;;;;6251364;23;20024;-91
2023/09/10 08:34:58;;;;;;;9.82;5.25;;;30.20;99.90;;;;;;6255403;23;20115;-92
2023/09/10 08:37:50;;;;;;;10.73;5.38;;;30.90;99.90;;;;;;6261300;23;20028;-90
2023/09/10 08:40:49;;;;;;;14.57;6.70;;;31.00;99.90;;;;;;6252260;23;20024;-93
2023/09/10 08:44:12;;;;;;;;;;;;;;;;;;;;;
2023/09/10 08:47:25;;;;;;;13.63;5.05;;;31.70;99.90;;;;;;6249328;23;20027;-92
2023/09/10 08:55:11;;;;;;;;;;;;;;;;;;;;;
2023/09/10 08:58:34;;;;;;;;;;;;;;;;;;;;;
2023/09/10 09:01:29;;;;;;;8.18;4.93;;;33.90;99.90;;;;;;6172997;22;20029;-92
2023/09/10 09:08:40;;;;;;;7.97;3.80;;;33.50;99.90;;;;;;6223653;23;20085;-92
2023/09/10 09:12:06;;;;;;;6.30;4.20;;;34.10;99.90;;;;;;6259510;23;20016;-92
2023/09/10 09:15:30;;;;;;;;;;;;;;;;;;;;;
2023/09/10 09:22:42;;;;;;;7.40;4.65;;;35.00;99.90;;;;;;6046441;23;20025;-93
2023/09/10 09:26:47;;;;;;;8.13;4.28;;;35.00;94.50;;;;;;5964393;24;20111;-93
2023/09/10 09:30:05;;;;;;;8.35;4.32;;;35.20;99.90;;;;;;5918548;24;20611;-95
2023/09/10 09:33:41;;;;;;;7.55;4.38;;;35.30;90.60;;;;;;6012673;23;20034;-92
2023/09/10 09:37:42;;;;;;;6.47;4.28;;;35.00;89.90;;;;;;5931188;23;20410;-91
2023/09/10 09:50:59;;;;;;;7.20;4.28;;;35.40;32.60;;;;;;5990374;23;20012;-93
2023/09/10 09:58:22;;;;;;;12.05;4.95;;;35.50;18.10;;;;;;5062704;28;20431;-92
2023/09/10 10:01:33;;;;;;;5.90;4.40;;;35.60;52.40;;;;;;5056156;28;20045;-92
2023/09/10 10:09:18;;;;;;;9.07;4.53;;;36.00;24.90;;;;;;4999943;28;20104;-94
2023/09/10 10:12:04;;;;;;;6.45;4.18;;;36.90;12.60;;;;;;5046061;28;20047;-93
2023/09/10 10:14:54;;;;;;;4.38;3.90;;;37.90;11.70;;;;;;5054526;28;20049;-90
2023/09/10 10:17:43;;;;;;;5.70;3.95;;;36.80;1.00;;;;;;5063091;28;20075;-91
2023/09/10 10:20:30;;;;;;;8.93;4.57;;;36.30;10.50;;;;;;5062482;28;20369;-92
2023/09/10 10:23:21;;;;;;;7.97;4.45;;;35.50;1.00;;;;;;5056188;28;20477;-93
2023/09/10 10:26:16;;;;;;;10.93;5.10;;;34.30;1.00;;;;;;5057805;28;20064;-91
2023/09/10 10:29:03;;;;;;;11.82;5.10;;;34.40;1.00;;;;;;5064970;28;20041;-95
2023/09/10 10:32:12;;;;;;;7.47;4.57;;;34.50;1.00;;;;;;5060178;28;20404;-92
2023/09/10 10:35:05;;;;;;;5.65;4.43;;;35.90;1.00;;;;;;5061031;28;20060;-92
2023/09/10 10:38:06;;;;;;;8.45;4.50;;;36.00;1.00;;;;;;5059930;28;20049;-94
2023/09/10 10:40:55;;;;;;;11.85;4.80;;;36.00;1.00;;;;;;5042674;28;20361;-93
2023/09/10 10:43:59;;;;;;;7.43;4.68;;;36.40;1.00;;;;;;5044484;28;20042;-91
2023/09/10 10:47:12;;;;;;;7.60;4.55;;;37.20;1.00;;;;;;5065777;28;20051;-91
2023/09/10 10:50:07;;;;;;;9.15;4.63;;;37.20;1.00;;;;;;5060447;28;20042;-92
2023/09/10 10:53:02;;;;;;;6.82;4.47;;;35.80;1.00;;;;;;5063827;28;20055;-91
2023/09/10 10:55:53;;;;;;;7.75;4.22;;;36.40;1.00;;;;;;5062994;28;20052;-91
2023/09/10 10:58:41;;;;;;;11.35;4.68;;;37.50;1.00;;;;;;5072705;28;20069;-92
2023/09/10 11:01:29;;;;;;;9.85;4.88;;;37.00;1.00;;;;;;5079710;28;20045;-92
2023/09/10 11:04:20;;;;;;;7.43;4.65;;;37.10;1.00;;;;;;5060731;28;20551;-92
2023/09/10 11:07:18;;;;;;;6.32;4.82;;;37.10;1.00;;;;;;5047007;28;20097;-93
2023/09/10 11:10:27;;;;;;;6.60;4.32;;;36.40;1.00;;;;;;5053726;28;20052;-95
2023/09/10 11:13:15;;;;;;;9.45;5.18;;;35.70;1.00;;;;;;5044524;28;20041;-92
2023/09/10 11:16:03;;;;;;;8.85;5.00;;;35.00;1.00;;;;;;5058961;28;20052;-89
2023/09/10 11:19:00;;;;;;;8.73;5.32;;;35.20;1.00;;;;;;5062269;28;20057;-91
2023/09/10 11:22:03;;;;;;;9.98;5.53;;;35.20;1.00;;;;;;5036251;28;20040;-92
2023/09/10 11:25:05;;;;;;;7.50;4.80;;;36.10;1.00;;;;;;5041853;28;20065;-94
2023/09/10 11:28:41;;;;;;;8.00;4.78;;;36.70;1.00;;;;;;5048385;28;20141;-93
2023/09/10 11:31:40;;;;;;;9.65;4.57;;;37.70;1.00;;;;;;5024506;28;20128;-94
2023/09/10 11:34:32;;;;;;;4.50;3.97;;;39.00;1.00;;;;;;5041036;28;20049;-90
2023/09/10 11:37:28;;;;;;;;;;;38.40;1.00;;;;;;5057957;28;20055;-92
2023/09/10 11:40:19;;;;;;;9.93;4.38;;;38.60;1.00;;;;;;5050911;28;20031;-92
2023/09/10 11:43:14;;;;;;;6.78;4.20;;;39.60;1.00;;;;;;5051943;28;20118;-93
2023/09/10 11:46:11;;;;;;;10.00;4.45;;;39.70;1.00;;;;;;5059721;28;20041;-91
2023/09/10 11:49:00;;;;;;;8.63;5.20;;;39.00;1.00;;;;;;5068124;28;20048;-91
2023/09/10 11:51:50;;;;;;;7.45;4.10;;;39.60;1.00;;;;;;5043867;28;20327;-92
2023/09/10 11:54:38;;;;;;;9.30;4.13;;;40.50;1.00;;;;;;5037303;28;20053;-91
2023/09/10 11:57:26;;;;;;;6.13;3.60;;;40.70;1.00;;;;;;5048956;28;20120;-91
2023/09/10 12:00:16;;;;;;;10.82;4.13;;;39.70;1.00;;;;;;5055659;28;20388;-86
2023/09/10 12:03:07;;;;;;;8.47;4.40;;;37.00;1.00;;;;;;5055756;28;20159;-89
2023/09/10 12:05:56;;;;;;;5.88;4.30;;;35.30;1.00;;;;;;5027644;28;20077;-89
2023/09/10 12:08:45;;;;;;;7.90;4.30;;;33.90;1.00;;;;;;5051138;28;20051;-89
2023/09/10 12:11:35;;;;;;;6.05;4.03;;;32.70;1.00;;;;;;5044536;28;20052;-86
2023/09/10 12:14:23;;;;;;;8.77;4.00;;;32.70;1.00;;;;;;5060719;28;20041;-90
2023/09/10 12:17:33;;;;;;;7.38;4.20;;;34.10;1.00;;;;;;5040756;28;20033;-93
2023/09/10 12:20:22;;;;;;;7.38;4.00;;;36.10;1.00;;;;;;5059406;28;20142;-93
2023/09/10 12:23:16;;;;;;;9.63;3.80;;;37.10;1.00;;;;;;5029997;28;20370;-93
2023/09/10 12:26:52;;;;;;;6.68;3.65;;;38.50;1.00;;;;;;5039844;28;20092;-94
2023/09/10 12:29:44;;;;;;;5.30;3.40;;;39.50;1.00;;;;;;5036478;28;20053;-94
2023/09/10 12:32:41;;;;;;;6.57;3.67;;;40.80;1.00;;;;;;5036731;28;20045;-92
2023/09/10 12:35:47;;;;;;;5.20;3.47;;;41.60;1.00;;;;;;5044345;28;20052;-91
2023/09/10 12:39:45;;;;;;;3.92;3.40;;;39.70;1.00;;;;;;5040908;28;20049;-94
2023/09/10 12:42:49;;;;;;;8.47;3.23;;;39.10;1.00;;;;;;4997128;28;20061;-94
2023/09/10 12:46:11;;;;;;;6.00;3.45;;;38.40;1.00;;;;;;5043906;28;20045;-94
2023/09/10 12:49:10;;;;;;;4.93;3.28;;;39.40;1.00;;;;;;5039102;28;20056;-92
2023/09/10 12:51:58;;;;;;;5.35;3.03;;;39.00;1.00;;;;;;5042550;28;20048;-94
2023/09/10 12:54:47;;;;;;;5.50;3.45;;;38.90;1.00;;;;;;5025537;28;20044;-94
2023/09/10 12:57:37;;;;;;;4.47;3.15;;;39.70;1.00;;;;;;5049394;28;20051;-93
2023/09/10 13:01:15;;;;;;;3.90;3.13;;;39.60;1.00;;;;;;5026453;28;20134;-93
2023/09/10 13:04:06;;;;;;;5.47;3.17;;;39.40;1.00;;;;;;5047753;28;20045;-92
2023/09/10 13:06:55;;;;;;;6.45;3.33;;;39.10;1.00;;;;;;5045572;28;20037;-93
2023/09/10 13:09:44;;;;;;;4.63;3.40;;;39.00;1.00;;;;;;5044444;28;20049;-93
2023/09/10 13:12:43;;;;;;;7.10;3.28;;;38.60;1.00;;;;;;5035722;28;20152;-93
2023/09/10 13:15:34;;;;;;;3.70;3.13;;;40.00;1.00;;;;;;5047222;28;20454;-94
2023/09/10 13:18:31;;;;;;;4.25;3.10;;;41.40;1.00;;;;;;5064267;28;20126;-90
2023/09/10 13:22:05;;;;;;;4.90;3.55;;;42.70;1.00;;;;;;5060281;28;20025;-88
2023/09/10 13:25:02;;;;;;;4.25;3.28;;;42.00;1.00;;;;;;5067775;28;20053;-90
2023/09/10 13:27:52;;;;;;;24.15;21.13;;;41.30;1.00;;;;;;5066222;28;20068;-87
2023/09/10 13:30:39;;;;;;;12.77;7.90;;;41.50;1.00;;;;;;5052789;28;20098;-87
2023/09/10 13:33:27;;;;;;;9.13;4.07;;;41.80;1.00;;;;;;5054828;28;20049;-90
2023/09/10 13:36:14;;;;;;;6.78;4.43;;;42.20;1.00;;;;;;5047938;28;20045;-90
2023/09/10 13:39:02;;;;;;;8.18;4.00;;;42.10;1.00;;;;;;5052714;28;20053;-91
2023/09/10 13:41:49;;;;;;;7.93;3.40;;;42.50;1.00;;;;;;5039877;28;20049;-92
2023/09/10 13:44:37;;;;;;;6.65;3.97;;;43.00;1.00;;;;;;5043300;28;20092;-91
2023/09/10 13:47:25;;;;;;;6.28;3.60;;;42.40;1.00;;;;;;5044713;28;20057;-93
2023/09/10 13:50:13;;;;;;;3.83;3.35;;;41.50;1.00;;;;;;5053590;28;20080;-90
2023/09/10 13:53:00;;;;;;;8.77;3.92;;;42.20;1.00;;;;;;5050712;28;20049;-91
2023/09/10 13:55:48;;;;;;;8.80;4.40;;;42.70;1.00;;;;;;5054112;28;20590;-90
2023/09/10 13:58:36;;;;;;;12.90;3.80;;;42.90;1.00;;;;;;5026725;28;20437;-93
2023/09/10 14:01:23;;;;;;;4.55;3.53;;;43.40;1.00;;;;;;5045148;28;20136;-90
2023/09/10 14:04:11;;;;;;;4.63;3.53;;;43.90;1.00;;;;;;5051399;28;20045;-93
2023/09/10 14:06:59;;;;;;;4.22;3.55;;;43.70;1.00;;;;;;5050793;28;20060;-93
2023/09/10 14:10:19;;;;;;;9.63;4.03;;;43.40;1.00;;;;;;5028304;28;20052;-94
2023/09/10 14:13:36;;;;;;;8.32;4.45;;;42.00;1.00;;;;;;5015126;28;20045;-96
2023/09/10 14:16:26;;;;;;;10.65;3.72;;;42.70;1.00;;;;;;5050345;28;20052;-93
2023/09/10 14:19:19;;;;;;;7.50;3.33;;;42.70;1.00;;;;;;5039909;28;20049;-95
2023/09/10 14:22:09;;;;;;;4.97;3.92;;;43.10;1.00;;;;;;5051631;28;20041;-90
2023/09/10 14:25:11;;;;;;;7.30;3.13;;;42.90;1.00;;;;;;5035314;28;20477;-91
2023/09/10 14:28:01;;;;;;;7.75;3.30;;;43.20;1.00;;;;;;5045296;28;20049;-89
2023/09/10 14:30:49;;;;;;;6.80;3.13;;;43.40;1.00;;;;;;5037881;28;20045;-90
2023/09/10 14:33:37;;;;;;;6.97;3.53;;;43.30;1.00;;;;;;5042944;28;20046;-89
2023/09/10 14:36:25;;;;;;;4.32;3.10;;;42.90;1.00;;;;;;5054473;28;20063;-89
2023/09/10 14:39:14;;;;;;;4.93;3.30;;;41.60;1.00;;;;;;5032769;28;20382;-90
2023/09/10 14:42:01;;;;;;;4.78;3.88;;;40.60;1.00;;;;;;5046270;28;20047;-87
2023/09/10 14:44:52;;;;;;;7.10;4.30;;;40.50;1.00;;;;;;5047805;28;20041;-89
2023/09/10 14:47:39;;;;;;;5.20;4.30;;;40.20;1.00;;;;;;5048382;28;20123;-90
2023/09/10 14:50:26;;;;;;;7.28;4.47;;;39.50;1.00;;;;;;5055392;28;20053;-90
2023/09/10 14:53:14;;;;;;;10.35;4.40;;;39.80;1.00;;;;;;5055152;28;20081;-89
2023/09/10 14:56:02;;;;;;;6.20;4.50;;;40.70;1.00;;;;;;5036813;28;20050;-91
2023/09/10 14:58:49;;;;;;;9.48;5.07;;;40.20;1.00;;;;;;5034841;28;20474;-90
2023/09/10 15:01:42;;;;;;;8.27;4.85;;;39.00;1.00;;;;;;5039364;28;20033;-92
2023/09/10 15:04:29;;;;;;;7.75;5.00;;;38.50;1.00;;;;;;5055766;28;20048;-90
2023/09/10 15:07:17;;;;;;;7.32;4.53;;;38.80;1.00;;;;;;5033518;28;20045;-91
2023/09/10 15:10:05;;;;;;;6.85;4.47;;;39.10;1.00;;;;;;5034614;28;20079;-91
2023/09/10 15:12:53;;;;;;;11.27;4.93;;;38.60;1.00;;;;;;5038775;28;20053;-92
2023/09/10 15:15:40;;;;;;;7.57;4.28;;;37.80;1.00;;;;;;5055159;28;20059;-94
2023/09/10 15:18:33;;;;;;;8.05;4.40;;;37.50;1.00;;;;;;5053604;28;20060;-91
2023/09/10 15:21:26;;;;;;;9.90;4.82;;;37.20;1.00;;;;;;5052728;28;20036;-92
2023/09/10 15:24:17;;;;;;;7.50;5.18;;;36.20;1.00;;;;;;5049944;28;20029;-91
2023/09/10 15:40:10;;;;;;;10.18;5.63;;;34.20;1.00;;;;;;5066099;28;20033;-92
2023/09/10 15:43:52;;;;;;;6.70;5.28;;;34.10;1.00;;;;;;5059543;28;20173;-92
2023/09/10 15:54:27;;;;;;;8.68;5.47;;;33.80;1.00;;;;;;4947738;28;20051;-90